Time;durP1;ratioP1;P1;durP2;ratioP2;P2;SDS_P1;SDS_P2;PMS_P1;PMS_P2;Temp;Humidity;BMP_temperature;BMP_pressure;BME280_temperature;BME280_humidity;BME280_pressure;Samples;Min_cycle;Max_cycle;Signal;HPM_P1;HPM_P2
2023/06/23 00:00:55;;;;;;;6.10;5.45;;;;;;;17.97;85.26;102013.16;4995707;28;20083;-83
2023/06/23 00:03:22;;;;;;;4.72;4.43;;;;;;;17.96;85.25;102025.56;5000362;28;20236;-83
2023/06/23 00:05:48;;;;;;;5.63;5.10;;;;;;;17.95;85.43;102025.66;4997031;28;20054;-83
2023/06/23 00:08:13;;;;;;;6.57;6.05;;;;;;;17.94;85.44;102013.34;5015547;28;20093;-83
2023/06/23 00:10:38;;;;;;;7.80;4.65;;;;;;;17.92;85.38;102012.56;4996105;28;20034;-83
2023/06/23 00:13:04;;;;;;;5.60;5.15;;;;;;;17.93;85.10;102016.94;4995183;28;20353;-83
2023/06/23 00:15:29;;;;;;;4.90;4.50;;;;;;;17.91;85.18;102021.47;4978373;28;20336;-83
2023/06/23 00:17:55;;;;;;;4.57;4.18;;;;;;;17.89;85.31;102020.69;4995887;28;20077;-83
2023/06/23 00:20:22;;;;;;;6.13;5.63;;;;;;;17.88;85.20;102009.22;4995780;28;20073;-83
2023/06/23 00:22:47;;;;;;;5.90;5.40;;;;;;;17.88;85.14;101997.75;4997393;28;20030;-83
2023/06/23 00:25:13;;;;;;;8.65;7.47;;;;;;;17.86;85.48;101997.84;4999520;28;20022;-83
2023/06/23 00:27:44;;;;;;;6.60;6.00;;;;;;;17.84;85.60;101994.38;4999286;28;20038;-83
2023/06/23 00:30:11;;;;;;;7.80;7.05;;;;;;;17.82;85.73;102001.56;4999287;28;20056;-83
2023/06/23 00:32:38;;;;;;;9.10;8.30;;;;;;;17.80;85.83;101990.19;4999242;28;20042;-83
2023/06/23 00:35:03;;;;;;;11.15;8.57;;;;;;;17.79;86.08;101999.06;5017017;28;20062;-83
2023/06/23 00:37:30;;;;;;;8.45;7.68;;;;;;;17.80;86.39;102009.59;5019067;28;20033;-83
2023/06/23 00:39:56;;;;;;;12.65;11.43;;;;;;;17.79;86.70;102010.53;5004684;28;20049;-83
2023/06/23 00:42:21;;;;;;;14.68;12.57;;;;;;;17.79;86.90;102014.97;4999485;28;20261;-83
2023/06/23 00:44:47;;;;;;;12.10;10.88;;;;;;;17.77;87.42;102023.03;4998894;28;20109;-83
2023/06/23 00:47:14;;;;;;;15.35;13.75;;;;;;;17.75;87.40;102019.56;4981349;28;20041;-83
2023/06/23 00:49:40;;;;;;;15.02;12.70;;;;;;;17.74;87.97;102025.81;4999209;28;20034;-83
2023/06/23 00:52:07;;;;;;;11.15;10.15;;;;;;;17.76;87.92;102023.09;4998969;28;20414;-83
2023/06/23 00:54:35;;;;;;;13.73;12.35;;;;;;;17.75;88.15;102022.22;4999057;28;20357;-83
2023/06/23 00:57:03;;;;;;;12.77;10.27;;;;;;;17.73;88.27;102021.44;4981177;28;20340;-83
2023/06/23 00:59:29;;;;;;;;;;;;;;;17.73;88.23;102025.91;4999561;28;20210;-83
2023/06/23 01:01:58;;;;;;;14.80;13.30;;;;;;;17.74;88.26;102039.06;4998399;28;19912;-83
2023/06/23 01:04:23;;;;;;;;;;;;;;;17.74;88.38;102044.38;5012412;28;20041;-83
2023/06/23 01:07:30;;;;;;;17.30;14.63;;;;;;;17.72;88.44;102048.00;5017540;28;19959;-83
2023/06/23 01:10:11;;;;;;;14.50;12.13;;;;;;;17.71;88.57;102051.63;4968249;28;20046;-83
2023/06/23 01:12:55;;;;;;;15.25;13.30;;;;;;;17.70;88.43;102060.47;4997202;28;20022;-83
2023/06/23 01:15:25;;;;;;;12.43;11.18;;;;;;;17.69;88.74;102059.63;4979309;28;20113;-83
2023/06/23 01:18:04;;;;;;;11.88;10.40;;;;;;;17.67;88.80;102061.50;4961241;28;20398;-83
2023/06/23 01:20:33;;;;;;;12.80;11.50;;;;;;;17.66;88.83;102059.78;4979439;28;20134;-83
2023/06/23 01:23:07;;;;;;;12.18;10.90;;;;;;;17.63;88.71;102059.97;4979761;28;20065;-83
2023/06/23 01:25:36;;;;;;;12.00;10.88;;;;;;;17.62;89.00;102063.53;4998301;28;20432;-83
2023/06/23 01:28:39;;;;;;;12.13;10.90;;;;;;;17.60;89.01;102058.31;4998444;28;20026;-83
2023/06/23 01:31:07;;;;;;;12.75;11.45;;;;;;;17.60;88.97;102060.09;4998215;28;20080;-83
2023/06/23 01:33:39;;;;;;;12.85;10.70;;;;;;;17.57;88.97;102057.59;5003019;28;20038;-83
2023/06/23 01:36:07;;;;;;;12.35;11.05;;;;;;;17.55;89.20;102065.63;5000049;28;20124;-83
2023/06/23 01:38:36;;;;;;;12.20;11.00;;;;;;;17.53;89.24;102070.16;5015246;28;20292;-83
2023/06/23 01:41:07;;;;;;;15.32;11.48;;;;;;;17.53;88.87;102086.03;4997941;28;20397;-83
2023/06/23 01:43:34;;;;;;;13.55;12.15;;;;;;;17.52;89.29;102080.81;4998026;28;20058;-83
2023/06/23 01:46:08;;;;;;;13.50;11.30;;;;;;;17.51;89.21;102085.25;4998099;28;20085;-83
2023/06/23 01:48:38;;;;;;;15.18;12.30;;;;;;;17.51;89.47;102089.72;4996753;28;20068;-83
2023/06/23 01:51:06;;;;;;;12.57;11.38;;;;;;;17.52;89.55;102080.81;4997827;28;20046;-83
2023/06/23 01:53:32;;;;;;;14.32;11.77;;;;;;;17.51;89.50;102079.97;4980467;28;20038;-83
2023/06/23 01:56:01;;;;;;;14.05;11.48;;;;;;;17.50;89.95;102083.56;4997627;28;20049;-83
2023/06/23 01:58:28;;;;;;;13.70;11.48;;;;;;;17.51;90.02;102092.34;4997773;28;20034;-83
2023/06/23 02:00:55;;;;;;;14.30;12.15;;;;;;;17.49;89.93;102097.72;4997247;28;20041;-83
2023/06/23 02:03:22;;;;;;;15.05;12.00;;;;;;;17.50;90.15;102098.56;5001882;28;20220;-83
2023/06/23 02:05:51;;;;;;;15.75;11.73;;;;;;;17.49;90.03;102100.38;5016871;28;20464;-83
2023/06/23 02:08:18;;;;;;;13.75;11.63;;;;;;;17.48;90.04;102105.75;5017312;28;20096;-83
2023/06/23 02:10:44;;;;;;;15.45;12.70;;;;;;;17.46;90.21;102105.81;4980027;28;20081;-83
2023/06/23 02:13:11;;;;;;;13.18;11.77;;;;;;;17.44;90.27;102110.34;4997443;28;20225;-83
2023/06/23 02:15:39;;;;;;;20.42;17.75;;;;;;;17.43;90.20;102116.59;4979980;28;20066;-83
2023/06/23 02:18:05;;;;;;;21.02;16.67;;;;;;;17.42;90.19;102118.34;4997246;28;20042;-83
2023/06/23 02:20:33;;;;;;;17.92;15.57;;;;;;;17.41;90.07;102123.75;4997576;28;20038;-83
2023/06/23 02:23:00;;;;;;;16.25;13.93;;;;;;;17.40;90.16;102125.50;4997252;28;20036;-84
2023/06/23 02:25:27;;;;;;;15.80;13.77;;;;;;;17.36;90.00;102123.09;4990544;28;20326;-83
2023/06/23 02:27:53;;;;;;;17.42;14.70;;;;;;;17.32;90.05;102133.00;4977043;28;20091;-83
2023/06/23 02:30:19;;;;;;;16.88;14.70;;;;;;;17.29;90.11;102143.72;4993948;28;20042;-83
2023/06/23 02:32:48;;;;;;;16.95;14.55;;;;;;;17.25;90.10;102144.81;4996980;28;20333;-83
2023/06/23 02:35:14;;;;;;;20.90;15.57;;;;;;;17.23;89.94;102146.69;5016458;28;20034;-83
2023/06/23 02:37:43;;;;;;;16.25;14.40;;;;;;;17.21;89.87;102153.84;5016591;28;20057;-83
2023/06/23 02:40:16;;;;;;;18.35;14.57;;;;;;;17.17;89.86;102146.94;4991300;28;20035;-83
2023/06/23 02:42:46;;;;;;;18.25;14.63;;;;;;;17.15;90.10;102144.38;4977269;28;20317;-83
2023/06/23 02:45:19;;;;;;;18.33;14.45;;;;;;;17.12;90.11;102135.72;4991315;28;20042;-83
2023/06/23 02:47:48;;;;;;;17.80;15.57;;;;;;;17.12;90.15;102141.00;4996391;28;20057;-83
2023/06/23 02:50:19;;;;;;;18.27;15.07;;;;;;;17.10;89.79;102130.53;4996892;28;20339;-83
2023/06/23 02:52:47;;;;;;;18.58;15.07;;;;;;;17.08;89.98;102127.94;5002504;28;20026;-82
2023/06/23 02:55:18;;;;;;;18.45;14.77;;;;;;;17.07;90.11;102126.22;4997117;28;20540;-83
2023/06/23 02:57:47;;;;;;;21.25;15.27;;;;;;;17.06;90.09;102127.16;4996467;28;20042;-83
2023/06/23 03:00:19;;;;;;;17.65;14.38;;;;;;;17.06;90.10;102131.56;4996656;28;20233;-83
2023/06/23 03:02:48;;;;;;;16.77;14.98;;;;;;;17.05;89.85;102137.81;4996868;28;20038;-83
2023/06/23 03:05:13;;;;;;;20.25;15.10;;;;;;;17.05;90.23;102140.47;5005497;28;20129;-83
2023/06/23 03:07:39;;;;;;;17.58;14.82;;;;;;;17.02;90.03;102140.59;4996228;28;20049;-83
2023/06/23 03:10:08;;;;;;;18.88;15.20;;;;;;;17.00;90.24;102140.66;4978700;28;20030;-83
2023/06/23 03:12:34;;;;;;;19.02;15.18;;;;;;;16.98;90.17;102149.63;4994856;28;20038;-83
2023/06/23 03:15:01;;;;;;;17.65;15.55;;;;;;;16.94;90.33;102143.63;4978307;28;20077;-83
2023/06/23 03:17:31;;;;;;;18.10;15.93;;;;;;;16.92;90.22;102149.88;4996512;28;20042;-83
2023/06/23 03:20:09;;;;;;;19.45;15.30;;;;;;;16.89;90.09;102154.41;4978515;28;20062;-83
2023/06/23 03:22:41;;;;;;;17.35;14.65;;;;;;;16.88;90.28;102170.34;4996240;28;20360;-83
2023/06/23 03:25:12;;;;;;;18.52;15.52;;;;;;;16.87;90.29;102168.63;4975605;28;20356;-83
2023/06/23 03:27:40;;;;;;;16.95;14.57;;;;;;;16.85;90.09;102173.16;4994459;28;20042;-83
2023/06/23 03:30:12;;;;;;;18.98;15.82;;;;;;;16.82;90.38;102168.81;5006677;28;20033;-83
2023/06/23 03:32:50;;;;;;;18.27;16.20;;;;;;;16.81;90.20;102180.34;5015847;28;20034;-83
2023/06/23 03:35:19;;;;;;;21.60;16.45;;;;;;;16.78;90.38;102177.81;4988895;28;20044;-83
2023/06/23 03:37:52;;;;;;;20.25;16.85;;;;;;;16.76;90.35;102169.09;4995907;28;20061;-83
2023/06/23 03:40:20;;;;;;;19.83;16.38;;;;;;;16.76;90.42;102181.47;4978512;28;20042;-83
2023/06/23 03:42:50;;;;;;;17.80;15.80;;;;;;;16.75;90.34;102183.25;4996160;28;20102;-83
2023/06/23 03:45:18;;;;;;;20.50;16.65;;;;;;;16.73;90.15;102182.44;4995883;28;20053;-83
2023/06/23 03:47:46;;;;;;;19.05;16.45;;;;;;;16.72;90.37;102185.16;4978137;28;20047;-83
2023/06/23 03:50:18;;;;;;;19.92;16.65;;;;;;;16.70;90.38;102190.56;4996391;28;20073;-83
2023/06/23 03:52:45;;;;;;;20.30;16.77;;;;;;;16.68;90.33;102200.31;4995883;28;20044;-83
2023/06/23 03:55:12;;;;;;;19.20;16.48;;;;;;;16.67;90.42;102196.81;4995756;28;20079;-83
2023/06/23 03:57:39;;;;;;;21.30;17.13;;;;;;;16.65;90.40;102203.97;4999010;28;20085;-83
2023/06/23 04:00:06;;;;;;;20.02;17.48;;;;;;;16.65;90.33;102206.63;4984210;28;20042;-83
2023/06/23 04:02:33;;;;;;;20.00;17.00;;;;;;;16.64;90.45;102210.16;4989552;28;20038;-83
2023/06/23 04:05:02;;;;;;;21.95;19.02;;;;;;;16.64;90.37;102210.16;5003982;28;20074;-83
2023/06/23 04:07:29;;;;;;;17.02;15.23;;;;;;;16.65;90.44;102217.19;4984654;28;20068;-83
2023/06/23 04:09:58;;;;;;;23.38;20.25;;;;;;;16.67;90.58;102225.91;5002170;28;20061;-83
2023/06/23 04:12:25;;;;;;;21.23;16.00;;;;;;;16.68;90.82;102225.00;5002295;28;20030;-83
2023/06/23 04:14:53;;;;;;;18.38;14.93;;;;;;;16.70;90.75;102220.50;4984174;28;20036;-83
2023/06/23 04:17:22;;;;;;;22.67;19.33;;;;;;;16.74;91.08;102223.88;4984671;28;20030;-83
2023/06/23 04:19:53;;;;;;;23.83;19.27;;;;;;;16.76;90.98;102226.44;5001678;28;20097;-83
2023/06/23 04:22:20;;;;;;;21.70;17.02;;;;;;;16.78;91.47;102225.44;5002440;28;20022;-83
2023/06/23 04:24:47;;;;;;;23.63;19.50;;;;;;;16.80;91.92;102222.72;5002076;28;20100;-83
2023/06/23 04:27:16;;;;;;;30.45;22.25;;;;;;;16.82;92.60;102223.50;5002208;28;20045;-83
2023/06/23 04:29:45;;;;;;;19.45;15.48;;;;;;;16.83;92.65;102214.69;5001928;28;20108;-83
2023/06/23 04:32:12;;;;;;;19.70;17.63;;;;;;;16.83;93.12;102223.47;5002155;28;20073;-83
2023/06/23 04:34:38;;;;;;;21.27;17.50;;;;;;;16.86;93.01;102231.28;5016409;28;20059;-83
2023/06/23 04:37:12;;;;;;;16.20;14.48;;;;;;;16.87;93.62;102230.34;5021465;28;20064;-83
2023/06/23 04:39:49;;;;;;;19.98;15.32;;;;;;;16.89;94.01;102223.19;5010490;28;20048;-83
2023/06/23 04:42:19;;;;;;;19.40;16.00;;;;;;;16.91;94.21;102220.47;5002191;28;20029;-83
2023/06/23 04:44:52;;;;;;;21.83;17.77;;;;;;;16.94;94.47;102224.78;5002013;28;20038;-83
2023/06/23 04:47:21;;;;;;;20.98;17.27;;;;;;;16.96;94.76;102212.34;5002018;28;20041;-83
2023/06/23 04:49:52;;;;;;;18.63;15.05;;;;;;;16.96;94.79;102218.50;5001826;28;20266;-83
2023/06/23 04:52:20;;;;;;;25.02;19.70;;;;;;;16.97;95.16;102228.16;4984347;28;20026;-83
2023/06/23 04:54:49;;;;;;;20.17;14.80;;;;;;;16.98;94.99;102229.84;5001980;28;20025;-83
2023/06/23 04:57:19;;;;;;;17.75;15.55;;;;;;;16.98;95.35;102226.38;4984536;28;20052;-83
2023/06/23 04:59:52;;;;;;;18.52;16.33;;;;;;;17.01;95.32;102223.59;4995616;28;20069;-83
2023/06/23 05:02:20;;;;;;;18.75;16.05;;;;;;;17.01;95.60;102223.59;4984734;28;20041;-83
2023/06/23 05:04:47;;;;;;;15.77;14.07;;;;;;;17.01;95.63;102221.78;5016873;28;20046;-83
2023/06/23 05:07:16;;;;;;;17.30;14.57;;;;;;;17.03;95.61;102235.81;5003596;28;20030;-83
2023/06/23 05:09:46;;;;;;;20.83;16.95;;;;;;;17.05;95.61;102231.31;4988572;28;20268;-83
2023/06/23 05:12:14;;;;;;;17.25;15.40;;;;;;;17.07;95.58;102240.03;4997384;28;20042;-83
2023/06/23 05:14:41;;;;;;;23.55;18.15;;;;;;;17.08;95.94;102244.41;4963157;28;20034;-83
2023/06/23 05:17:09;;;;;;;21.00;17.10;;;;;;;17.12;96.05;102252.19;4998108;28;20264;-83
2023/06/23 05:19:37;;;;;;;30.13;21.23;;;;;;;17.13;96.31;102253.91;4987663;28;20044;-83
2023/06/23 05:22:08;;;;;;;20.52;16.50;;;;;;;17.15;96.81;102257.34;4982543;28;20039;-83
2023/06/23 05:24:37;;;;;;;25.23;19.45;;;;;;;17.15;96.72;102262.63;4980711;28;20046;-83
2023/06/23 05:27:03;;;;;;;;;;;;;;;17.16;97.20;102261.72;4987141;28;20038;-83
2023/06/23 05:29:30;;;;;;;21.88;17.00;;;;;;;17.18;96.86;102258.06;4988978;28;20096;-83
2023/06/23 05:31:56;;;;;;;18.02;14.48;;;;;;;17.20;96.74;102266.78;4969751;28;20026;-83
2023/06/23 05:34:24;;;;;;;21.30;16.25;;;;;;;17.20;97.01;102266.78;4990909;28;20034;-83
2023/06/23 05:36:52;;;;;;;20.75;17.00;;;;;;;17.24;96.90;102272.81;4988182;28;20038;-83
2023/06/23 05:39:19;;;;;;;17.70;14.38;;;;;;;17.25;97.25;102277.19;4989157;28;20041;-83
2023/06/23 05:41:45;;;;;;;13.93;11.98;;;;;;;17.27;96.95;102268.22;4987282;28;20038;-83
2023/06/23 05:44:10;;;;;;;15.23;13.18;;;;;;;17.30;96.76;102271.66;4987480;28;20102;-83
2023/06/23 05:46:39;;;;;;;13.98;12.40;;;;;;;17.30;96.79;102272.53;4986977;28;20064;-83
2023/06/23 05:49:17;;;;;;;11.52;10.32;;;;;;;17.32;96.77;102267.16;4986403;28;20041;-83
2023/06/23 05:51:44;;;;;;;16.15;12.75;;;;;;;17.34;96.42;102271.47;4998156;28;20038;-83
2023/06/23 05:54:11;;;;;;;11.45;10.30;;;;;;;17.34;96.28;102270.59;4996362;28;20105;-83
2023/06/23 05:56:48;;;;;;;14.27;11.15;;;;;;;17.36;95.87;102281.97;4997993;28;20038;-83
2023/06/23 05:59:27;;;;;;;10.70;9.48;;;;;;;17.35;95.85;102289.03;4998342;28;20081;-83
2023/06/23 06:01:57;;;;;;;10.68;9.57;;;;;;;17.37;95.54;102291.63;4997116;28;20039;-83
2023/06/23 06:04:27;;;;;;;9.38;8.43;;;;;;;17.37;95.51;102296.91;4997969;28;20130;-84
2023/06/23 06:06:56;;;;;;;10.95;9.80;;;;;;;17.38;95.63;102302.16;4979887;28;20041;-83
2023/06/23 06:09:23;;;;;;;9.13;8.25;;;;;;;17.40;95.39;102304.72;4997923;28;20042;-83
2023/06/23 06:11:51;;;;;;;9.07;8.18;;;;;;;17.39;95.29;102297.72;4992122;28;20373;-83
2023/06/23 06:14:19;;;;;;;11.45;8.52;;;;;;;17.39;95.03;102303.88;4994389;28;20293;-83
2023/06/23 06:16:46;;;;;;;9.38;8.20;;;;;;;17.41;95.18;102306.47;4994345;28;20283;-83
2023/06/23 06:19:16;;;;;;;8.17;7.37;;;;;;;17.41;94.99;102306.47;4994503;28;20030;-83
2023/06/23 06:21:45;;;;;;;8.40;7.60;;;;;;;17.41;95.19;102317.91;4994126;28;20038;-83
2023/06/23 06:24:13;;;;;;;6.78;6.18;;;;;;;17.43;95.02;102315.19;4976429;28;20032;-83
2023/06/23 06:26:41;;;;;;;7.60;6.90;;;;;;;17.43;94.95;102313.41;4976443;28;20236;-83
2023/06/23 06:29:08;;;;;;;8.95;8.07;;;;;;;17.45;94.96;102313.34;4993940;28;20038;-83
2023/06/23 06:31:34;;;;;;;7.20;6.55;;;;;;;17.44;94.89;102309.84;4980339;28;20064;-83
2023/06/23 06:34:01;;;;;;;6.63;6.15;;;;;;;17.45;94.35;102308.88;5001651;28;20030;-83
2023/06/23 06:36:31;;;;;;;5.32;4.93;;;;;;;17.48;94.38;102315.81;4971315;28;20352;-83
2023/06/23 06:38:58;;;;;;;6.20;5.70;;;;;;;17.49;94.29;102312.25;4994504;28;20042;-83
2023/06/23 06:41:24;;;;;;;5.63;5.18;;;;;;;17.49;94.28;102319.34;4994889;28;20093;-83
2023/06/23 06:43:50;;;;;;;5.82;5.32;;;;;;;17.49;94.33;102320.19;4993989;28;20038;-83
2023/06/23 06:46:17;;;;;;;5.30;4.82;;;;;;;17.51;94.38;102323.63;4991681;28;20068;-83
2023/06/23 06:48:47;;;;;;;4.75;4.45;;;;;;;17.52;94.13;102328.00;4993604;28;20324;-83
2023/06/23 06:51:15;;;;;;;4.82;4.43;;;;;;;17.54;94.01;102327.94;4984785;28;20286;-83
2023/06/23 06:53:41;;;;;;;;;;;;;;;17.55;93.88;102335.78;4992286;28;20335;-83
2023/06/23 06:56:07;;;;;;;4.90;4.47;;;;;;;17.57;93.58;102333.06;4983334;28;19918;-83
2023/06/23 06:58:33;;;;;;;5.35;4.25;;;;;;;17.59;93.38;102337.38;4972356;28;20494;-83
2023/06/23 07:00:58;;;;;;;5.00;4.65;;;;;;;17.61;92.91;102338.19;4974479;28;20042;-83
2023/06/23 07:03:25;;;;;;;5.68;5.18;;;;;;;17.63;92.96;102338.97;4993193;28;20029;-83
2023/06/23 07:05:50;;;;;;;4.45;4.05;;;;;;;17.65;92.54;102341.53;4968031;28;20049;-83
2023/06/23 07:08:16;;;;;;;6.47;5.85;;;;;;;17.68;92.33;102335.22;4969825;28;20217;-83
2023/06/23 07:10:41;;;;;;;5.53;5.05;;;;;;;17.70;92.32;102349.25;4984318;28;20030;-83
2023/06/23 07:13:06;;;;;;;5.63;5.15;;;;;;;17.73;92.48;102355.28;4983400;28;20034;-83
2023/06/23 07:15:32;;;;;;;4.47;4.07;;;;;;;17.75;92.34;102348.09;4988124;28;20251;-83
2023/06/23 07:17:58;;;;;;;5.13;4.63;;;;;;;17.79;92.36;102351.47;4986359;28;20030;-83
2023/06/23 07:20:23;;;;;;;4.53;4.18;;;;;;;17.81;92.18;102357.59;4982141;28;20353;-84
2023/06/23 07:22:48;;;;;;;5.20;4.80;;;;;;;17.82;91.81;102352.19;4984014;28;20085;-84
2023/06/23 07:25:14;;;;;;;5.25;4.85;;;;;;;17.86;91.87;102354.72;4985986;28;20053;-84
2023/06/23 07:27:39;;;;;;;3.67;3.47;;;;;;;17.89;91.56;102363.41;4967167;28;20039;-83
2023/06/23 07:30:05;;;;;;;5.07;4.68;;;;;;;17.89;91.18;102358.09;4970426;28;20315;-83
2023/06/23 07:32:30;;;;;;;4.53;4.22;;;;;;;17.92;90.92;102371.22;4981783;28;20393;-83
2023/06/23 07:34:56;;;;;;;3.75;3.55;;;;;;;17.95;90.82;102371.03;4983357;28;20364;-84
2023/06/23 07:37:22;;;;;;;4.00;3.70;;;;;;;17.98;90.50;102372.72;4984300;28;20057;-83
2023/06/23 07:39:47;;;;;;;3.30;3.10;;;;;;;18.00;90.45;102368.19;4969156;28;20121;-83
2023/06/23 07:42:13;;;;;;;4.50;4.20;;;;;;;18.02;90.03;102372.47;4969491;28;20038;-83
2023/06/23 07:44:38;;;;;;;5.32;4.10;;;;;;;18.07;90.11;102372.28;4987760;28;20037;-83
2023/06/23 07:47:04;;;;;;;3.95;3.65;;;;;;;18.10;90.02;102380.09;4985064;28;20042;-83
2023/06/23 07:49:30;;;;;;;7.65;5.00;;;;;;;18.12;89.66;102366.72;4990774;28;20088;-83
2023/06/23 07:52:00;;;;;;;5.88;5.28;;;;;;;18.14;89.64;102363.09;4993139;28;20034;-83
2023/06/23 07:54:29;;;;;;;4.20;3.90;;;;;;;18.17;89.64;102372.66;4993805;28;20034;-83
2023/06/23 07:56:58;;;;;;;5.20;4.70;;;;;;;18.21;89.26;102375.13;4992934;28;20460;-84
2023/06/23 07:59:25;;;;;;;4.60;4.30;;;;;;;18.23;89.03;102373.25;4993685;28;20469;-83
2023/06/23 08:01:51;;;;;;;6.90;4.82;;;;;;;18.25;88.51;102364.38;4993338;28;20042;-83
2023/06/23 08:04:16;;;;;;;5.20;4.70;;;;;;;18.27;87.95;102367.81;5000110;28;20280;-83
2023/06/23 08:06:42;;;;;;;4.72;4.32;;;;;;;18.29;87.96;102372.09;4993641;28;20033;-84
2023/06/23 08:09:07;;;;;;;4.55;4.25;;;;;;;18.31;87.93;102375.50;4993713;28;20069;-83
2023/06/23 08:11:33;;;;;;;5.15;4.75;;;;;;;18.33;87.77;102380.75;4993418;28;20227;-83
2023/06/23 08:14:00;;;;;;;4.93;4.43;;;;;;;18.37;87.64;102377.88;4993067;28;20054;-83
2023/06/23 08:16:26;;;;;;;5.43;5.03;;;;;;;18.41;87.58;102383.91;4993865;28;20040;-83
2023/06/23 08:18:52;;;;;;;4.57;4.28;;;;;;;18.44;87.31;102386.38;4992928;28;20097;-83
2023/06/23 08:21:17;;;;;;;4.18;3.83;;;;;;;18.46;86.83;102376.53;4993693;28;20034;-83
2023/06/23 08:23:44;;;;;;;6.13;5.53;;;;;;;18.49;86.21;102386.16;4992850;28;20228;-83
2023/06/23 08:26:10;;;;;;;5.90;5.18;;;;;;;18.52;86.58;102389.53;4993209;28;20030;-83
2023/06/23 08:28:35;;;;;;;4.63;4.30;;;;;;;18.55;86.42;102388.50;4975979;28;20191;-83
2023/06/23 08:31:01;;;;;;;4.55;4.15;;;;;;;18.57;86.25;102390.16;4975368;28;20065;-83
2023/06/23 08:33:26;;;;;;;4.40;4.00;;;;;;;18.58;86.24;102391.84;4998719;28;20034;-83
2023/06/23 08:35:52;;;;;;;4.35;3.95;;;;;;;18.60;86.36;102395.28;4994184;28;20229;-83
2023/06/23 08:38:18;;;;;;;6.28;4.50;;;;;;;18.63;86.83;102398.72;4993598;28;20038;-83
2023/06/23 08:40:44;;;;;;;4.78;4.43;;;;;;;18.66;86.90;102393.28;4993051;28;20038;-83
2023/06/23 08:43:10;;;;;;;6.07;5.57;;;;;;;18.67;87.00;102401.16;4975549;28;20032;-83
2023/06/23 08:45:43;;;;;;;6.07;4.50;;;;;;;18.69;86.81;102403.75;4978690;28;20053;-83
2023/06/23 08:48:11;;;;;;;4.15;3.85;;;;;;;18.72;86.79;102406.22;4996496;28;20045;-83
2023/06/23 08:50:37;;;;;;;4.43;4.05;;;;;;;18.73;86.49;102408.81;4979678;28;20045;-84
2023/06/23 08:53:05;;;;;;;4.45;4.05;;;;;;;18.75;86.31;102392.81;4996299;28;20046;-84
2023/06/23 08:55:34;;;;;;;;;;;;;;;18.76;85.76;102403.34;4997231;28;20074;-83
2023/06/23 08:58:03;;;;;;;5.00;4.60;;;;;;;18.77;85.69;102410.38;4979291;28;19918;-83
2023/06/23 09:00:28;;;;;;;4.53;4.13;;;;;;;18.79;85.41;102410.28;4996581;28;20034;-84
2023/06/23 09:02:55;;;;;;;4.32;4.03;;;;;;;18.81;85.36;102413.78;4996150;28;20360;-84
2023/06/23 09:05:21;;;;;;;5.10;4.40;;;;;;;18.82;85.14;102415.47;4997108;28;20046;-84
2023/06/23 09:07:48;;;;;;;8.90;4.85;;;;;;;18.85;84.22;102414.47;4978317;28;20093;-84
2023/06/23 09:10:13;;;;;;;6.68;4.13;;;;;;;18.84;82.94;102413.59;4996384;28;20274;-84
2023/06/23 09:12:44;;;;;;;4.30;3.92;;;;;;;18.87;82.32;102416.09;4978413;28;20112;-83
2023/06/23 09:15:10;;;;;;;3.88;3.58;;;;;;;18.87;81.44;102410.81;4995968;28;20264;-83
2023/06/23 09:17:37;;;;;;;3.63;3.28;;;;;;;18.88;80.33;102412.53;4996152;28;20361;-83
2023/06/23 09:20:03;;;;;;;3.35;3.08;;;;;;;18.91;80.33;102411.50;4996955;28;20030;-83
2023/06/23 09:22:31;;;;;;;4.05;3.60;;;;;;;18.92;80.39;102422.03;4980645;28;20042;-83
2023/06/23 09:24:56;;;;;;;4.18;3.78;;;;;;;18.94;79.92;102414.84;4995548;28;20042;-83
2023/06/23 09:27:40;;;;;;;3.65;3.42;;;;;;;18.96;79.66;102423.59;4978973;28;20118;-84
2023/06/23 09:30:06;;;;;;;4.20;3.90;;;;;;;19.01;79.62;102425.16;4995707;28;20058;-84
2023/06/23 09:32:32;;;;;;;3.60;3.40;;;;;;;19.03;79.74;102425.94;4996425;28;20042;-84
2023/06/23 09:34:58;;;;;;;4.18;3.88;;;;;;;19.07;80.24;102427.50;4991329;28;20116;-83
2023/06/23 09:37:24;;;;;;;4.18;3.70;;;;;;;19.07;80.41;102425.72;4996021;28;20396;-84
2023/06/23 09:39:54;;;;;;;4.00;3.58;;;;;;;19.11;80.18;102421.09;4977828;28;20378;-83
2023/06/23 09:42:22;;;;;;;4.35;3.70;;;;;;;19.14;80.35;102431.56;4995930;28;20079;-84
2023/06/23 09:44:48;;;;;;;3.15;2.90;;;;;;;19.17;80.39;102437.59;4995004;28;20038;-84
2023/06/23 09:47:18;;;;;;;5.03;3.40;;;;;;;19.19;79.66;102440.13;4998704;28;20034;-84
2023/06/23 09:49:47;;;;;;;3.28;3.08;;;;;;;19.22;79.99;102434.66;4997907;28;20034;-84
2023/06/23 09:52:21;;;;;;;3.75;3.38;;;;;;;19.24;79.74;102438.09;4978280;28;20034;-84
2023/06/23 09:54:47;;;;;;;4.75;3.00;;;;;;;19.27;79.38;102434.44;4994553;28;20034;-84
2023/06/23 09:57:14;;;;;;;3.10;2.90;;;;;;;19.30;79.60;102444.88;4995830;28;20052;-84
2023/06/23 09:59:41;;;;;;;3.33;3.13;;;;;;;19.32;78.02;102441.22;4980406;28;20101;-84
2023/06/23 10:02:08;;;;;;;3.35;3.13;;;;;;;19.33;77.03;102434.97;4995734;28;20564;-84
2023/06/23 10:04:35;;;;;;;2.90;2.70;;;;;;;19.37;77.17;102439.19;5009835;28;20045;-84
2023/06/23 10:07:20;;;;;;;3.20;3.00;;;;;;;19.40;76.75;102435.50;5003586;28;20037;-84
2023/06/23 10:09:51;;;;;;;3.63;3.33;;;;;;;19.45;76.53;102432.63;4995352;28;20341;-84
2023/06/23 10:12:21;;;;;;;3.60;3.22;;;;;;;19.46;75.76;102436.97;4978040;28;20349;-84
2023/06/23 10:14:48;;;;;;;4.40;3.15;;;;;;;19.48;74.72;102441.28;4994619;28;20037;-84
2023/06/23 10:17:14;;;;;;;2.90;2.65;;;;;;;19.51;75.02;102426.97;4995353;28;20298;-84
2023/06/23 10:19:40;;;;;;;3.70;2.65;;;;;;;19.54;74.94;102434.78;4995181;28;20034;-84
2023/06/23 10:22:07;;;;;;;3.38;3.08;;;;;;;19.57;75.03;102434.59;4994929;28;20375;-84
2023/06/23 10:24:34;;;;;;;3.70;3.40;;;;;;;19.59;73.42;102430.06;4995604;28;20324;-84
2023/06/23 10:27:00;;;;;;;3.10;2.90;;;;;;;19.61;72.79;102436.19;4994623;28;20400;-84
2023/06/23 10:29:27;;;;;;;4.55;3.35;;;;;;;19.62;71.85;102427.25;4995075;28;20038;-84
2023/06/23 10:31:56;;;;;;;3.25;3.05;;;;;;;19.68;73.09;102436.69;4994607;28;20296;-83
2023/06/23 10:34:25;;;;;;;4.20;3.28;;;;;;;19.69;73.10;102436.59;5001263;28;20034;-84
2023/06/23 10:36:56;;;;;;;4.10;3.63;;;;;;;19.72;73.29;102439.13;4994266;28;20050;-83
2023/06/23 10:39:26;;;;;;;3.40;3.10;;;;;;;19.75;73.45;102441.66;4995300;28;20046;-84
2023/06/23 10:41:53;;;;;;;4.85;3.08;;;;;;;19.79;74.06;102446.78;4976720;28;20375;-83
2023/06/23 10:44:18;;;;;;;3.40;3.10;;;;;;;19.82;74.38;102452.78;4994746;28;20393;-83
2023/06/23 10:46:44;;;;;;;3.53;3.28;;;;;;;19.86;74.27;102449.00;5005033;28;20037;-84
2023/06/23 10:49:11;;;;;;;3.75;3.42;;;;;;;19.90;73.93;102452.34;4994389;28;20084;-83
2023/06/23 10:51:38;;;;;;;4.22;2.90;;;;;;;19.94;73.68;102456.59;4994528;28;20084;-84
2023/06/23 10:54:07;;;;;;;3.50;3.20;;;;;;;19.97;72.57;102451.09;4976945;28;20034;-84
2023/06/23 10:56:44;;;;;;;3.42;3.13;;;;;;;20.03;72.46;102449.88;4994780;28;20069;-84
2023/06/23 10:59:29;;;;;;;2.80;2.60;;;;;;;20.07;72.45;102454.13;4994417;28;20329;-84
2023/06/23 11:02:04;;;;;;;3.13;2.92;;;;;;;20.10;72.66;102448.59;5007006;28;20244;-83
2023/06/23 11:04:41;;;;;;;3.35;3.05;;;;;;;20.14;72.44;102450.16;4994669;28;20054;-83
2023/06/23 11:07:12;;;;;;;3.88;3.58;;;;;;;20.19;72.66;102449.91;4993423;28;20361;-84
2023/06/23 11:09:54;;;;;;;4.55;3.30;;;;;;;20.23;72.64;102443.44;4994267;28;20049;-83
2023/06/23 11:12:45;;;;;;;3.42;3.15;;;;;;;20.31;72.41;102450.06;4978291;28;20081;-84
2023/06/23 11:15:13;;;;;;;4.30;3.30;;;;;;;20.36;71.28;102441.84;4982589;28;20046;-84
2023/06/23 11:18:04;;;;;;;3.85;3.55;;;;;;;20.41;71.90;102445.09;4993977;28;20069;-84
2023/06/23 11:20:32;;;;;;;4.90;3.35;;;;;;;20.45;72.32;102453.75;4994170;28;20050;-83
2023/06/23 11:22:59;;;;;;;4.20;3.80;;;;;;;20.48;72.84;102449.13;4993024;28;20054;-84
2023/06/23 11:25:28;;;;;;;4.05;3.55;;;;;;;20.52;73.46;102453.31;4994320;28;20345;-84